createdAt,value
2022-09-02T00:01:20.053Z,100916.75
2022-09-02T00:06:17.732Z,100867.47
2022-09-02T00:11:15.320Z,100913.44
2022-09-02T00:16:11.029Z,100897.44
2022-09-02T00:21:07.426Z,100875.75
2022-09-02T00:26:05.061Z,100886.03
2022-09-02T00:30:58.893Z,100904.91
2022-09-02T00:35:52.231Z,100931.03
2022-09-02T00:40:48.136Z,100906.53
2022-09-02T00:45:43.284Z,100872.13
2022-09-02T00:50:39.671Z,100882.41
2022-09-02T00:55:37.836Z,100914.50
2022-09-02T01:00:34.957Z,100925.28
2022-09-02T01:05:33.358Z,100927.41
2022-09-02T01:10:29.510Z,100926.09
2022-09-02T01:15:22.772Z,100910.19
2022-09-02T01:20:19.246Z,100925.56
2022-09-02T01:25:18.228Z,100846.84
2022-09-02T01:30:14.465Z,100891.16
2022-09-02T01:35:08.870Z,100920.94
2022-09-02T01:40:02.606Z,100923.41
2022-09-02T01:44:57.503Z,100874.09
2022-09-02T01:49:51.804Z,100891.31
2022-09-02T01:54:46.642Z,100931.06
2022-09-02T01:59:40.377Z,100934.38
2022-09-02T02:04:35.221Z,100854.63
2022-09-02T02:09:31.707Z,100931.72
2022-09-02T02:14:25.562Z,100949.28
2022-09-02T02:19:19.758Z,100845.03
2022-09-02T02:24:16.259Z,100886.75
2022-09-02T02:29:10.000Z,100866.19
2022-09-02T02:34:05.009Z,100896.81
2022-09-02T02:39:01.625Z,100929.75
2022-09-02T02:44:00.332Z,100949.59
2022-09-02T02:48:56.549Z,100958.38
2022-09-02T02:53:49.945Z,100857.03
2022-09-02T02:58:45.296Z,100966.66
2022-09-02T03:03:40.222Z,100962.50
2022-09-02T03:08:35.388Z,100906.81
2022-09-02T03:13:29.449Z,100877.34
2022-09-02T03:18:26.907Z,100938.13
2022-09-02T03:23:21.804Z,100972.69
2022-09-02T03:28:20.283Z,100942.06
2022-09-02T03:33:14.299Z,100940.53
2022-09-02T03:38:09.252Z,100857.06
2022-09-02T03:43:05.210Z,100794.59
2022-09-02T03:48:01.514Z,100910.69
2022-09-02T03:53:00.771Z,100808.78
2022-09-02T03:57:55.099Z,100936.00
2022-09-02T04:02:55.449Z,100841.22
2022-09-02T04:07:51.516Z,100749.94
2022-09-02T04:12:45.315Z,100925.25
2022-09-02T04:17:41.613Z,100805.06
2022-09-02T04:22:40.688Z,100839.69
2022-09-02T04:27:34.329Z,100912.59
2022-09-02T04:32:29.563Z,100997.78
2022-09-02T04:37:24.754Z,100869.66
2022-09-02T04:42:22.449Z,101004.91
2022-09-02T04:47:16.003Z,100984.03
2022-09-02T04:52:10.792Z,100968.28
2022-09-02T04:57:06.322Z,100944.38
2022-09-02T05:02:02.331Z,101039.56
2022-09-02T05:12:41.272Z,100848.84
2022-09-02T05:18:04.559Z,100992.34
2022-09-02T05:22:59.365Z,100866.75
2022-09-02T05:27:52.713Z,100861.03
2022-09-02T05:32:50.013Z,101009.50
2022-09-02T05:37:49.342Z,100975.41
2022-09-02T05:42:43.851Z,101000.25
2022-09-02T05:47:39.997Z,101027.25
2022-09-02T05:52:37.037Z,101037.06
2022-09-02T05:57:46.405Z,101039.06
2022-09-02T06:02:42.800Z,100857.25
2022-09-02T06:07:57.932Z,101039.34
2022-09-02T06:12:51.931Z,101034.56
2022-09-02T06:17:49.414Z,100804.00
2022-09-02T06:22:43.354Z,100945.81
2022-09-02T06:27:42.144Z,101041.31
2022-09-02T06:32:36.702Z,100964.38
2022-09-02T06:37:36.605Z,101046.91
2022-09-02T06:42:30.365Z,101020.25
2022-09-02T06:47:41.019Z,100992.44
2022-09-02T06:52:36.178Z,101046.41
2022-09-02T06:57:34.125Z,101003.09
2022-09-02T07:02:32.362Z,100991.38
2022-09-02T07:07:28.921Z,101054.97
2022-09-02T07:12:33.069Z,101056.19
2022-09-02T07:17:33.625Z,101005.50
2022-09-02T07:22:31.828Z,101066.00
2022-09-02T07:27:28.318Z,101062.47
2022-09-02T07:32:23.503Z,101056.91
2022-09-02T07:37:16.787Z,101063.41
2022-09-02T07:42:11.580Z,101047.78
2022-09-02T07:47:06.520Z,101019.25
2022-09-02T07:52:02.591Z,101035.78
2022-09-02T07:56:57.510Z,101044.81
2022-09-02T08:01:54.769Z,101061.94
2022-09-02T08:06:50.712Z,101054.84
2022-09-02T08:11:47.871Z,101043.59
2022-09-02T08:16:44.939Z,101028.53
2022-09-02T08:21:41.812Z,101052.38
2022-09-02T08:26:37.299Z,101050.16
2022-09-02T08:31:32.187Z,101043.63
2022-09-02T08:36:25.770Z,101004.00
2022-09-02T08:41:23.986Z,101044.75
2022-09-02T08:46:19.317Z,100922.97
2022-09-02T08:51:19.497Z,100981.41
2022-09-02T08:56:17.128Z,100968.34
2022-09-02T09:01:20.055Z,101006.88
2022-09-02T09:06:19.854Z,101003.56
2022-09-02T09:11:21.156Z,100993.53
2022-09-02T09:16:26.300Z,100956.69
2022-09-02T09:26:23.031Z,100950.88
2022-09-02T09:31:19.943Z,100953.00
2022-09-02T09:36:14.298Z,100927.31
2022-09-02T09:41:29.153Z,100948.22
2022-09-02T09:46:28.898Z,100916.09
2022-09-02T09:51:22.495Z,100925.13
2022-09-02T09:56:30.618Z,100943.41
2022-09-02T10:01:31.159Z,100936.81
2022-09-02T10:06:37.148Z,100918.91
2022-09-02T10:11:32.436Z,100887.72
2022-09-02T10:16:45.143Z,100919.78
2022-09-02T10:21:58.316Z,100873.94
2022-09-02T10:26:56.121Z,100883.38
2022-09-02T10:32:00.873Z,100891.53
2022-09-02T10:37:09.880Z,100859.44
2022-09-02T10:42:10.745Z,100877.59
2022-09-02T10:47:11.688Z,100870.09
2022-09-02T10:52:13.724Z,100852.81
2022-09-02T10:57:13.027Z,100829.53
2022-09-02T11:02:15.346Z,100815.72
2022-09-02T11:07:14.415Z,100785.56
2022-09-02T11:12:13.490Z,100764.84
2022-09-02T11:17:15.837Z,100745.16
2022-09-02T11:22:27.267Z,100837.88
2022-09-02T11:27:41.683Z,100827.50
2022-09-02T11:32:47.315Z,100828.69
2022-09-02T11:37:45.242Z,100832.75
2022-09-02T11:42:54.538Z,100821.25
2022-09-02T11:48:14.252Z,100787.41
2022-09-02T11:53:21.670Z,100811.84
2022-09-02T11:58:32.910Z,100815.41
2022-09-02T12:03:58.447Z,100723.81
2022-09-02T12:09:07.903Z,100787.13
2022-09-02T12:14:04.493Z,100804.41
2022-09-02T12:19:27.745Z,100788.44
2022-09-02T12:24:22.423Z,100772.00
2022-09-02T12:29:35.260Z,100787.25
2022-09-02T12:35:07.961Z,100778.81
2022-09-02T12:40:13.983Z,100783.34
2022-09-02T12:45:13.264Z,100765.00
2022-09-02T12:50:12.954Z,100814.19
2022-09-02T12:55:12.288Z,100881.00
2022-09-02T13:00:05.639Z,100875.00
2022-09-02T13:05:19.731Z,100846.75
2022-09-02T13:10:46.245Z,100894.81
2022-09-02T13:16:02.977Z,100912.84
2022-09-02T13:21:19.737Z,100822.94
2022-09-02T13:26:53.521Z,100870.47
2022-09-02T13:32:01.624Z,100858.88
2022-09-02T13:36:56.194Z,100906.91
2022-09-02T13:41:49.545Z,100927.88
2022-09-02T13:46:48.752Z,100939.22
2022-09-02T13:51:45.476Z,100878.53
2022-09-02T13:56:40.360Z,100915.34
2022-09-02T14:01:40.614Z,100780.53
2022-09-02T14:06:38.684Z,100809.88
2022-09-02T14:11:48.192Z,100837.31
2022-09-02T14:16:45.519Z,100863.16
2022-09-02T14:21:46.057Z,100769.78
2022-09-02T14:26:44.337Z,100884.84
2022-09-02T14:31:38.065Z,100884.38
2022-09-02T14:36:38.346Z,100897.94
2022-09-02T14:41:39.241Z,100890.50
2022-09-02T14:46:40.606Z,100876.94
2022-09-02T14:51:42.587Z,100867.50
2022-09-02T14:56:52.351Z,100888.34
2022-09-02T15:01:51.931Z,100701.50
2022-09-02T15:06:48.014Z,100911.03
2022-09-02T15:12:27.508Z,100717.69
2022-09-02T15:17:25.189Z,100671.38
2022-09-02T15:22:36.775Z,100872.81
2022-09-02T15:27:34.743Z,100672.66
2022-09-02T15:32:43.223Z,100706.09
2022-09-02T15:38:26.352Z,100675.47
2022-09-02T15:43:31.269Z,100757.69
2022-09-02T15:48:26.411Z,100709.75
2022-09-02T15:53:20.014Z,100886.91
2022-09-02T15:58:13.832Z,100779.19
2022-09-02T16:03:12.093Z,100856.94
2022-09-02T16:08:05.685Z,100793.91
2022-09-02T16:13:00.838Z,100828.97
2022-09-02T16:17:54.389Z,100848.34
2022-09-02T16:23:01.369Z,100795.38
2022-09-02T16:27:57.299Z,100840.03
2022-09-02T16:32:51.818Z,100751.53
2022-09-02T16:37:45.431Z,100823.16
2022-09-02T16:42:40.295Z,100851.94
2022-09-02T16:47:33.972Z,100870.97
2022-09-02T16:52:27.181Z,100859.53
2022-09-02T16:57:23.408Z,100778.28
2022-09-02T17:02:25.575Z,100873.44
2022-09-02T17:07:21.572Z,100884.84
2022-09-02T17:12:21.376Z,100879.72
2022-09-02T17:17:19.694Z,100903.72
2022-09-02T17:22:14.794Z,100913.81
2022-09-02T17:27:08.354Z,100882.16
2022-09-02T17:32:04.181Z,100869.72
2022-09-02T17:37:04.378Z,100815.25
2022-09-02T17:41:59.871Z,100962.31
2022-09-02T17:47:01.129Z,100926.00
2022-09-02T17:51:55.430Z,100980.53
2022-09-02T17:57:10.133Z,100727.56
2022-09-02T18:02:44.106Z,100970.16
2022-09-02T18:07:49.894Z,100948.28
2022-09-02T18:12:45.555Z,100873.59
2022-09-02T18:17:52.259Z,100899.25
2022-09-02T18:23:13.492Z,100850.56
2022-09-02T18:28:44.970Z,100837.16
2022-09-02T18:34:02.618Z,100885.16
2022-09-02T18:39:21.319Z,100935.03
2022-09-02T18:44:39.305Z,100744.66
2022-09-02T18:49:38.388Z,100737.38
2022-09-02T18:54:47.302Z,100785.06
2022-09-02T19:00:20.472Z,100729.16
2022-09-02T19:05:27.270Z,100894.63
2022-09-02T19:10:28.054Z,100940.34
2022-09-02T19:15:25.288Z,100941.69
2022-09-02T19:20:19.184Z,100767.84
2022-09-02T19:25:22.121Z,100856.75
2022-09-02T19:30:29.231Z,100749.97
2022-09-02T19:35:27.922Z,100737.25
2022-09-02T19:40:48.753Z,100751.59
2022-09-02T19:45:42.322Z,100738.00
2022-09-02T19:50:45.054Z,100943.13
2022-09-02T19:55:39.210Z,100941.09
2022-09-02T20:00:35.346Z,100910.63
2022-09-02T20:05:31.382Z,100916.03
2022-09-02T20:10:28.000Z,100953.56
2022-09-02T20:15:26.223Z,100965.25
2022-09-02T20:20:24.011Z,100950.25
2022-09-02T20:25:17.702Z,100975.75
2022-09-02T20:30:19.287Z,100942.06
2022-09-02T20:35:38.720Z,100971.53
2022-09-02T20:40:59.231Z,100930.50
2022-09-02T20:45:58.746Z,100865.84
2022-09-02T20:51:01.678Z,100959.47
2022-09-02T20:56:00.656Z,100975.88
2022-09-02T21:01:06.774Z,100885.00
2022-09-02T21:06:03.112Z,100797.75
2022-09-02T21:11:08.765Z,100881.25
2022-09-02T21:16:11.383Z,100959.53
2022-09-02T21:21:11.740Z,100935.94
2022-09-02T21:26:11.683Z,100983.28
2022-09-02T21:31:15.488Z,101012.63
2022-09-02T21:36:13.421Z,101032.94
2022-09-02T21:41:27.320Z,100803.28
2022-09-02T21:46:31.277Z,100976.47
2022-09-02T21:51:33.862Z,100960.47
2022-09-02T21:56:44.410Z,100982.94
2022-09-02T22:01:51.145Z,100998.16
2022-09-02T22:06:48.830Z,100788.19
2022-09-02T22:11:50.577Z,100968.59
2022-09-02T22:16:59.138Z,100890.03
2022-09-02T22:22:02.511Z,100928.03
2022-09-02T22:27:02.517Z,100999.66
2022-09-02T22:31:59.857Z,100989.13
2022-09-02T22:36:58.478Z,100940.94
2022-09-02T22:41:58.926Z,100960.59
2022-09-02T22:47:13.548Z,100952.69
2022-09-02T22:52:34.578Z,100971.41
2022-09-02T22:57:39.425Z,100896.13
2022-09-02T23:02:39.352Z,100945.97
2022-09-02T23:07:32.992Z,100871.44
2022-09-02T23:12:33.918Z,100997.41
2022-09-02T23:17:36.580Z,100996.13
2022-09-02T23:22:45.194Z,100964.06
2022-09-02T23:27:45.226Z,101002.31
2022-09-02T23:33:02.323Z,100935.56
2022-09-02T23:38:21.761Z,100892.53
2022-09-02T23:43:18.496Z,100932.25
2022-09-02T23:48:31.738Z,100958.03
2022-09-02T23:53:32.701Z,100934.22
2022-09-02T23:58:41.327Z,100975.22
